createdAt,value
2022-09-04T00:02:23.389Z,20.11
2022-09-04T00:05:01.023Z,20.09
2022-09-04T00:07:48.366Z,19.83
2022-09-04T00:10:23.961Z,19.94
2022-09-04T00:12:58.107Z,20.03
2022-09-04T00:15:36.179Z,19.99
2022-09-04T00:18:10.973Z,19.93
2022-09-04T00:20:46.990Z,19.91
2022-09-04T00:23:22.855Z,19.96
2022-09-04T00:26:00.520Z,19.83
2022-09-04T00:28:36.407Z,19.85
2022-09-04T00:31:20.506Z,19.87
2022-09-04T00:33:56.242Z,19.73
2022-09-04T00:36:27.623Z,19.80
2022-09-04T00:39:03.683Z,19.71
2022-09-04T00:41:44.031Z,19.70
2022-09-04T00:44:42.759Z,19.64
2022-09-04T00:47:46.186Z,19.51
2022-09-04T00:50:41.574Z,19.54
2022-09-04T00:53:32.287Z,19.56
2022-09-04T00:56:28.046Z,19.49
2022-09-04T00:59:15.980Z,19.38
2022-09-04T01:02:19.495Z,19.47
2022-09-04T01:04:58.127Z,19.41
2022-09-04T01:07:45.490Z,19.41
2022-09-04T01:10:30.101Z,19.47
2022-09-04T01:13:10.690Z,19.33
2022-09-04T01:15:45.950Z,19.37
2022-09-04T01:18:20.648Z,19.35
2022-09-04T01:21:30.853Z,19.34
2022-09-04T01:24:24.034Z,19.35
2022-09-04T01:27:04.521Z,19.28
2022-09-04T01:29:47.941Z,19.34
2022-09-04T01:32:32.917Z,19.19
2022-09-04T01:35:13.554Z,19.19
2022-09-04T01:37:52.922Z,19.18
2022-09-04T01:40:35.858Z,19.15
2022-09-04T01:43:10.920Z,19.13
2022-09-04T01:46:17.053Z,19.13
2022-09-04T01:48:53.190Z,19.17
2022-09-04T01:51:32.806Z,19.07
2022-09-04T01:54:27.733Z,18.94
2022-09-04T01:57:14.897Z,18.93
2022-09-04T02:00:02.498Z,18.72
2022-09-04T02:02:48.864Z,18.98
2022-09-04T02:05:31.023Z,18.77
2022-09-04T02:08:15.922Z,18.90
2022-09-04T02:10:53.982Z,18.75
2022-09-04T02:13:34.189Z,18.85
2022-09-04T02:16:14.687Z,18.79
2022-09-04T02:18:56.800Z,18.78
2022-09-04T02:21:34.317Z,18.65
2022-09-04T02:24:14.717Z,18.67
2022-09-04T02:26:52.255Z,18.85
2022-09-04T02:29:29.120Z,18.86
2022-09-04T02:32:13.127Z,18.67
2022-09-04T02:34:50.710Z,18.79
2022-09-04T02:37:30.365Z,18.75
2022-09-04T02:40:13.643Z,18.72
2022-09-04T02:43:16.907Z,18.54
2022-09-04T02:45:57.223Z,18.57
2022-09-04T02:48:42.443Z,18.67
2022-09-04T02:51:24.838Z,18.73
2022-09-04T02:54:03.884Z,18.73
2022-09-04T02:56:48.869Z,18.62
2022-09-04T02:59:32.476Z,18.61
2022-09-04T03:02:04.523Z,18.49
2022-09-04T03:04:44.415Z,18.66
2022-09-04T03:07:19.424Z,18.54
2022-09-04T03:09:53.053Z,18.42
2022-09-04T03:12:33.508Z,18.51
2022-09-04T03:15:14.539Z,18.40
2022-09-04T03:17:55.514Z,18.44
2022-09-04T03:20:28.045Z,18.44
2022-09-04T03:23:04.476Z,18.57
2022-09-04T03:26:17.786Z,18.62
2022-09-04T03:29:10.182Z,18.66
2022-09-04T03:31:49.106Z,18.66
2022-09-04T03:34:31.365Z,18.57
2022-09-04T03:37:21.324Z,18.53
2022-09-04T03:40:06.036Z,18.53
2022-09-04T03:42:46.063Z,18.31
2022-09-04T03:45:28.631Z,18.56
2022-09-04T03:48:15.552Z,18.44
2022-09-04T03:50:56.533Z,18.22
2022-09-04T03:53:33.250Z,18.20
2022-09-04T03:56:47.162Z,18.45
2022-09-04T03:59:27.829Z,18.44
2022-09-04T04:02:07.471Z,18.52
2022-09-04T04:05:12.065Z,18.62
2022-09-04T04:07:55.490Z,18.59
2022-09-04T04:10:40.463Z,18.57
2022-09-04T04:13:36.829Z,18.53
2022-09-04T04:16:26.643Z,18.54
2022-09-04T04:19:23.024Z,18.54
2022-09-04T04:22:10.241Z,18.43
2022-09-04T04:25:06.127Z,18.41
2022-09-04T04:28:01.481Z,18.48
2022-09-04T04:30:38.079Z,18.34
2022-09-04T04:33:36.333Z,18.28
2022-09-04T04:36:17.665Z,18.28
2022-09-04T04:39:04.439Z,18.51
2022-09-04T04:42:00.750Z,18.52
2022-09-04T04:45:26.413Z,18.47
2022-09-04T04:48:54.119Z,18.46
2022-09-04T04:52:05.831Z,18.48
2022-09-04T04:54:59.201Z,18.51
2022-09-04T04:57:39.563Z,18.45
2022-09-04T05:00:16.103Z,18.36
2022-09-04T05:03:01.502Z,18.53
2022-09-04T05:05:58.790Z,18.51
2022-09-04T05:08:41.730Z,18.43
2022-09-04T05:11:24.686Z,18.41
2022-09-04T05:14:07.939Z,18.44
2022-09-04T05:16:55.846Z,18.51
2022-09-04T05:19:33.599Z,18.39
2022-09-04T05:22:13.060Z,18.25
2022-09-04T05:24:56.634Z,18.27
2022-09-04T05:27:48.269Z,18.37
2022-09-04T05:30:23.050Z,18.33
2022-09-04T05:33:02.166Z,18.39
2022-09-04T05:35:42.694Z,18.30
2022-09-04T05:38:21.769Z,18.35
2022-09-04T05:41:08.049Z,18.26
2022-09-04T05:43:47.963Z,18.24
2022-09-04T05:46:30.732Z,18.24
2022-09-04T05:49:06.638Z,18.22
2022-09-04T05:52:02.051Z,18.32
2022-09-04T05:55:01.564Z,18.45
2022-09-04T05:57:42.399Z,18.66
2022-09-04T06:00:16.011Z,18.69
2022-09-04T06:03:22.859Z,18.79
2022-09-04T06:06:13.538Z,18.92
2022-09-04T06:09:03.174Z,18.76
2022-09-04T06:11:46.502Z,18.92
2022-09-04T06:14:31.690Z,18.85
2022-09-04T06:17:24.816Z,19.03
2022-09-04T06:20:15.834Z,19.24
2022-09-04T06:23:25.230Z,19.39
2022-09-04T06:26:27.687Z,19.88
2022-09-04T06:29:24.799Z,20.05
2022-09-04T06:32:23.837Z,19.92
2022-09-04T06:35:20.991Z,20.17
2022-09-04T06:38:09.247Z,20.39
2022-09-04T06:40:53.460Z,20.58
2022-09-04T06:43:33.857Z,20.41
2022-09-04T06:46:20.391Z,20.77
2022-09-04T06:49:02.730Z,20.58
2022-09-04T06:52:06.057Z,20.75
2022-09-04T06:54:56.382Z,21.09
2022-09-04T06:57:50.759Z,21.18
2022-09-04T07:00:20.716Z,21.17
2022-09-04T07:03:18.280Z,21.61
2022-09-04T07:06:01.421Z,21.95
2022-09-04T07:08:47.092Z,22.09
2022-09-04T07:11:33.504Z,22.12
2022-09-04T07:14:32.093Z,21.71
2022-09-04T07:17:11.557Z,21.63
2022-09-04T07:20:16.541Z,22.10
2022-09-04T07:23:03.218Z,22.28
2022-09-04T07:25:44.259Z,22.42
2022-09-04T07:28:38.947Z,22.55
2022-09-04T07:31:12.929Z,22.06
2022-09-04T07:33:53.130Z,22.53
2022-09-04T07:36:33.206Z,22.75
2022-09-04T07:39:10.611Z,23.21
2022-09-04T07:41:47.763Z,23.23
2022-09-04T07:44:27.267Z,23.37
2022-09-04T07:47:12.309Z,23.65
2022-09-04T07:50:02.462Z,23.93
2022-09-04T07:53:02.666Z,23.93
2022-09-04T07:55:40.533Z,23.80
2022-09-04T07:59:00.983Z,24.35
2022-09-04T08:02:00.081Z,24.29
2022-09-04T08:05:08.689Z,24.48
2022-09-04T08:08:24.854Z,24.58
2022-09-04T08:11:13.655Z,24.62
2022-09-04T08:14:06.369Z,24.57
2022-09-04T08:16:46.284Z,24.78
2022-09-04T08:19:30.566Z,25.12
2022-09-04T08:21:59.851Z,24.75
2022-09-04T08:25:19.222Z,24.74
2022-09-04T08:28:24.399Z,24.92
2022-09-04T08:31:06.319Z,25.30
2022-09-04T08:34:24.804Z,25.58
2022-09-04T08:37:03.500Z,25.48
2022-09-04T08:39:41.664Z,25.76
2022-09-04T08:42:50.544Z,26.22
2022-09-04T08:46:15.720Z,26.72
2022-09-04T08:49:47.001Z,26.19
2022-09-04T08:52:52.579Z,26.70
2022-09-04T08:55:46.924Z,26.69
2022-09-04T08:59:31.407Z,26.70
2022-09-04T09:02:52.305Z,26.79
2022-09-04T09:06:29.733Z,27.23
2022-09-04T09:09:40.931Z,27.40
2022-09-04T09:13:04.830Z,27.29
2022-09-04T09:16:04.174Z,27.35
2022-09-04T09:18:40.633Z,27.21
2022-09-04T09:21:13.585Z,27.42
2022-09-04T09:24:16.637Z,28.23
2022-09-04T09:27:09.548Z,28.27
2022-09-04T09:30:05.229Z,28.43
2022-09-04T09:33:32.344Z,28.45
2022-09-04T09:36:54.319Z,28.42
2022-09-04T09:40:11.872Z,28.65
2022-09-04T09:43:26.759Z,28.83
2022-09-04T09:46:33.211Z,28.84
2022-09-04T09:50:01.029Z,28.55
2022-09-04T09:53:23.910Z,28.81
2022-09-04T09:56:42.842Z,29.25
2022-09-04T10:00:13.257Z,28.64
2022-09-04T10:03:50.229Z,29.64
2022-09-04T10:07:02.361Z,29.61
2022-09-04T10:10:41.198Z,29.48
2022-09-04T10:13:57.476Z,28.88
2022-09-04T10:17:17.156Z,29.12
2022-09-04T10:20:50.702Z,29.56
2022-09-04T10:23:58.400Z,29.66
2022-09-04T10:27:12.333Z,29.83
2022-09-04T10:30:00.973Z,30.10
2022-09-04T10:33:09.193Z,29.96
2022-09-04T10:35:58.115Z,29.98
2022-09-04T10:39:00.818Z,29.79
2022-09-04T10:41:53.156Z,30.18
2022-09-04T10:44:51.431Z,30.63
2022-09-04T10:47:38.535Z,30.91
2022-09-04T10:50:40.025Z,30.66
2022-09-04T10:53:31.834Z,31.21
2022-09-04T10:56:09.645Z,30.86
2022-09-04T10:59:10.241Z,30.89
2022-09-04T11:02:16.538Z,31.27
2022-09-04T11:05:30.228Z,31.52
2022-09-04T11:08:24.248Z,31.23
2022-09-04T11:11:20.235Z,30.93
2022-09-04T11:14:25.590Z,30.53
2022-09-04T11:17:38.773Z,30.94
2022-09-04T11:20:49.984Z,31.28
2022-09-04T11:24:20.956Z,31.19
2022-09-04T11:27:49.281Z,31.43
2022-09-04T11:30:21.248Z,31.11
2022-09-04T11:33:50.965Z,31.20
2022-09-04T11:36:58.115Z,30.72
2022-09-04T11:40:44.396Z,30.61
2022-09-04T11:43:36.845Z,30.72
2022-09-04T11:46:39.831Z,30.89
2022-09-04T11:49:40.759Z,31.32
2022-09-04T11:52:23.779Z,31.60
2022-09-04T11:55:24.049Z,31.47
2022-09-04T11:58:12.262Z,31.37
2022-09-04T12:00:59.376Z,31.36
2022-09-04T12:04:02.828Z,30.86
2022-09-04T12:06:51.141Z,30.69
2022-09-04T12:10:11.558Z,31.26
2022-09-04T12:13:15.663Z,31.27
2022-09-04T12:16:32.897Z,31.33
2022-09-04T12:19:46.599Z,31.75
2022-09-04T12:22:57.125Z,31.88
2022-09-04T12:25:53.498Z,31.73
2022-09-04T12:29:01.303Z,31.94
2022-09-04T12:31:56.871Z,31.99
2022-09-04T12:34:50.202Z,32.14
2022-09-04T12:37:48.853Z,32.66
2022-09-04T12:40:51.737Z,33.04
2022-09-04T12:43:36.933Z,32.96
2022-09-04T12:46:38.383Z,33.38
2022-09-04T12:49:30.642Z,33.81
2022-09-04T12:52:19.063Z,33.90
2022-09-04T12:55:04.865Z,34.13
2022-09-04T12:57:49.153Z,33.96
2022-09-04T13:00:18.564Z,34.42
2022-09-04T13:03:01.509Z,34.53
2022-09-04T13:05:53.596Z,34.78
2022-09-04T13:08:35.810Z,34.61
2022-09-04T13:11:19.906Z,34.98
2022-09-04T13:14:00.810Z,34.55
2022-09-04T13:16:39.557Z,33.57
2022-09-04T13:19:18.402Z,34.13
2022-09-04T13:22:17.312Z,33.88
2022-09-04T13:25:02.590Z,32.72
2022-09-04T13:27:40.850Z,32.82
2022-09-04T13:30:21.682Z,32.88
2022-09-04T13:33:14.562Z,32.82
2022-09-04T13:36:06.783Z,32.50
2022-09-04T13:39:13.515Z,32.58
2022-09-04T13:42:33.462Z,32.45
2022-09-04T13:45:12.096Z,32.23
2022-09-04T13:47:50.873Z,31.75
2022-09-04T13:50:26.203Z,32.19
2022-09-04T13:52:59.646Z,32.03
2022-09-04T13:55:32.987Z,31.75
2022-09-04T13:58:10.829Z,31.82
2022-09-04T14:00:46.979Z,31.75
2022-09-04T14:03:31.424Z,31.56
2022-09-04T14:06:00.967Z,31.59
2022-09-04T14:08:31.112Z,31.22
2022-09-04T14:11:39.278Z,31.56
2022-09-04T14:14:48.521Z,31.26
2022-09-04T14:17:26.916Z,31.43
2022-09-04T14:20:04.355Z,31.48
2022-09-04T14:22:46.012Z,31.31
2022-09-04T14:25:22.435Z,31.52
2022-09-04T14:28:00.057Z,31.10
2022-09-04T14:30:29.682Z,31.31
2022-09-04T14:33:21.689Z,31.39
2022-09-04T14:36:02.451Z,31.27
2022-09-04T14:39:15.758Z,31.60
2022-09-04T14:42:06.859Z,31.32
2022-09-04T14:44:52.414Z,31.42
2022-09-04T14:47:31.578Z,31.10
2022-09-04T14:50:03.589Z,31.24
2022-09-04T14:53:02.269Z,31.63
2022-09-04T14:55:33.533Z,31.07
2022-09-04T14:58:27.349Z,31.33
2022-09-04T15:01:03.705Z,31.40
2022-09-04T15:03:38.266Z,31.35
2022-09-04T15:06:19.366Z,31.50
2022-09-04T15:08:51.486Z,31.54
2022-09-04T15:11:31.850Z,31.54
2022-09-04T15:14:08.934Z,30.78
2022-09-04T15:16:50.585Z,31.36
2022-09-04T15:19:54.993Z,31.31
2022-09-04T15:22:34.827Z,31.35
2022-09-04T15:25:09.177Z,31.24
2022-09-04T15:27:50.702Z,30.90
2022-09-04T15:30:23.187Z,30.71
2022-09-04T15:33:03.538Z,30.72
2022-09-04T15:35:33.944Z,30.69
2022-09-04T15:38:21.800Z,30.99
2022-09-04T15:41:16.964Z,30.96
2022-09-04T15:43:52.073Z,31.21
2022-09-04T15:46:31.827Z,31.54
2022-09-04T15:49:20.293Z,31.93
2022-09-04T15:51:56.163Z,32.24
2022-09-04T15:54:38.515Z,32.52
2022-09-04T15:57:14.602Z,32.99
2022-09-04T15:59:52.163Z,33.06
2022-09-04T16:02:36.282Z,33.47
2022-09-04T16:05:14.956Z,33.58
2022-09-04T16:07:54.497Z,33.57
2022-09-04T16:10:33.346Z,33.26
2022-09-04T16:13:11.987Z,33.44
2022-09-04T16:15:43.750Z,33.12
2022-09-04T16:18:19.574Z,33.05
2022-09-04T16:20:55.034Z,32.53
2022-09-04T16:23:30.822Z,32.90
2022-09-04T16:26:09.939Z,32.50
2022-09-04T16:28:45.480Z,32.11
2022-09-04T16:31:16.893Z,32.14
2022-09-04T16:33:53.266Z,31.62
2022-09-04T16:36:28.309Z,31.64
2022-09-04T16:38:59.712Z,31.48
2022-09-04T16:41:37.566Z,31.18
2022-09-04T16:44:26.201Z,30.85
2022-09-04T16:47:04.535Z,30.85
2022-09-04T16:49:42.216Z,30.83
2022-09-04T16:52:44.733Z,30.60
2022-09-04T16:55:21.630Z,30.31
2022-09-04T16:58:07.114Z,30.08
2022-09-04T17:00:56.186Z,30.26
2022-09-04T17:03:41.610Z,30.04
2022-09-04T17:06:23.087Z,29.97
2022-09-04T17:09:04.275Z,29.84
2022-09-04T17:11:55.520Z,29.68
2022-09-04T17:14:33.306Z,29.69
2022-09-04T17:17:21.593Z,29.60
2022-09-04T17:20:06.081Z,29.50
2022-09-04T17:28:56.955Z,29.30
2022-09-04T17:28:57.899Z,29.24
2022-09-04T17:29:08.978Z,28.99
2022-09-04T17:31:45.309Z,28.98
2022-09-04T17:40:53.291Z,28.83
2022-09-04T17:40:53.607Z,28.90
2022-09-04T17:40:56.942Z,28.99
2022-09-04T17:43:27.711Z,28.69
2022-09-04T17:46:09.554Z,28.61
2022-09-04T17:48:44.933Z,28.44
2022-09-04T17:51:24.758Z,28.32
2022-09-04T17:53:58.214Z,28.07
2022-09-04T17:56:32.818Z,28.09
2022-09-04T17:59:09.485Z,27.96
2022-09-04T18:01:59.321Z,27.89
2022-09-04T18:04:39.366Z,27.62
2022-09-04T18:07:50.954Z,27.54
2022-09-04T18:10:18.811Z,27.33
2022-09-04T18:12:53.237Z,27.17
2022-09-04T18:15:34.701Z,27.15
2022-09-04T18:18:14.715Z,26.96
2022-09-04T18:20:51.921Z,26.84
2022-09-04T18:24:03.594Z,26.67
2022-09-04T18:26:41.498Z,26.49
2022-09-04T18:32:57.627Z,26.41
2022-09-04T18:37:07.259Z,26.28
2022-09-04T18:37:22.080Z,26.13
2022-09-04T18:39:08.741Z,25.84
2022-09-04T18:48:21.754Z,25.77
2022-09-04T18:50:42.919Z,25.40
2022-09-04T18:50:50.779Z,25.62
2022-09-04T18:51:19.502Z,25.23
2022-09-04T18:53:55.186Z,25.12
2022-09-04T18:56:29.491Z,24.89
2022-09-04T18:59:08.825Z,24.72
2022-09-04T19:01:46.745Z,24.56
2022-09-04T19:04:53.185Z,24.50
2022-09-04T19:07:31.864Z,24.39
2022-09-04T19:10:25.420Z,24.22
2022-09-04T19:13:08.241Z,24.01
2022-09-04T19:15:58.382Z,23.97
2022-09-04T19:18:43.697Z,23.95
2022-09-04T19:21:32.520Z,23.88
2022-09-04T19:24:26.020Z,23.74
2022-09-04T19:27:26.622Z,23.71
2022-09-04T19:30:19.794Z,23.56
2022-09-04T19:33:10.633Z,23.52
2022-09-04T19:35:47.876Z,23.45
2022-09-04T19:45:39.633Z,23.44
2022-09-04T19:46:00.639Z,23.15
2022-09-04T19:46:01.576Z,23.24
2022-09-04T19:47:38.080Z,23.26
2022-09-04T19:52:58.911Z,23.05
2022-09-04T19:53:38.830Z,23.04
2022-09-04T19:56:21.937Z,22.95
2022-09-04T19:58:55.995Z,22.95
2022-09-04T20:01:31.405Z,22.91
2022-09-04T20:04:09.699Z,22.85
2022-09-04T20:06:47.996Z,22.80
2022-09-04T20:09:21.682Z,22.75
2022-09-04T20:11:59.228Z,22.69
2022-09-04T20:14:37.544Z,22.58
2022-09-04T20:17:28.449Z,22.59
2022-09-04T20:20:03.164Z,22.57
2022-09-04T20:22:37.257Z,22.55
2022-09-04T20:25:46.268Z,22.45
2022-09-04T20:28:48.574Z,22.38
2022-09-04T20:31:44.977Z,22.33
2022-09-04T20:34:30.450Z,22.23
2022-09-04T20:37:19.276Z,22.21
2022-09-04T20:40:01.371Z,22.14
2022-09-04T20:42:38.898Z,22.08
2022-09-04T20:50:27.184Z,22.02
2022-09-04T20:52:52.038Z,22.01
2022-09-04T20:52:53.416Z,21.92
2022-09-04T20:54:55.665Z,21.84
2022-09-04T21:03:11.861Z,21.89
2022-09-04T21:03:14.006Z,21.91
2022-09-04T21:03:38.953Z,21.87
2022-09-04T21:06:29.649Z,21.89
2022-09-04T21:09:18.900Z,21.89
2022-09-04T21:11:52.054Z,21.68
2022-09-04T21:14:44.851Z,21.64
2022-09-04T21:17:50.035Z,21.69
2022-09-04T21:21:02.429Z,21.73
2022-09-04T21:24:03.430Z,21.61
2022-09-04T21:26:59.958Z,21.65
2022-09-04T21:29:57.859Z,21.51
2022-09-04T21:33:28.365Z,21.46
2022-09-04T21:35:55.548Z,21.30
2022-09-04T21:39:14.734Z,21.32
2022-09-04T21:41:59.283Z,21.31
2022-09-04T21:45:12.957Z,21.30
2022-09-04T21:48:28.211Z,21.20
2022-09-04T21:51:29.093Z,21.24
2022-09-04T21:57:17.642Z,21.14
2022-09-04T22:02:37.800Z,21.13
2022-09-04T22:02:45.673Z,21.17
2022-09-04T22:04:55.285Z,21.07
2022-09-04T22:11:39.857Z,21.01
2022-09-04T22:13:29.713Z,20.91
2022-09-04T22:13:50.412Z,20.83
2022-09-04T22:16:47.103Z,20.90
2022-09-04T22:19:25.348Z,20.93
2022-09-04T22:22:04.125Z,20.93
2022-09-04T22:25:20.135Z,20.96
2022-09-04T22:28:37.240Z,20.86
2022-09-04T22:31:29.590Z,20.97
2022-09-04T22:34:47.797Z,20.89
2022-09-04T22:38:00.142Z,20.88
2022-09-04T22:40:56.781Z,20.83
2022-09-04T22:43:29.195Z,20.91
2022-09-04T22:47:24.461Z,20.83
2022-09-04T22:50:39.036Z,20.69
2022-09-04T22:53:42.917Z,20.72
2022-09-04T22:56:24.137Z,20.71
2022-09-04T22:59:33.914Z,20.81
2022-09-04T23:03:06.611Z,20.64
2022-09-04T23:08:40.920Z,20.64
2022-09-04T23:13:54.634Z,20.58
2022-09-04T23:13:57.803Z,20.54
2022-09-04T23:15:48.394Z,20.51
2022-09-04T23:19:50.201Z,20.49
2022-09-04T23:26:35.495Z,20.40
2022-09-04T23:26:45.503Z,20.46
2022-09-04T23:28:28.752Z,20.49
2022-09-04T23:31:19.972Z,20.47
2022-09-04T23:35:13.532Z,20.31
2022-09-04T23:38:09.691Z,20.43
2022-09-04T23:40:47.172Z,20.41
2022-09-04T23:43:47.745Z,20.57
2022-09-04T23:46:45.278Z,20.47
2022-09-04T23:49:52.091Z,20.51
2022-09-04T23:52:30.597Z,20.59
2022-09-04T23:55:17.623Z,20.60
2022-09-04T23:57:54.338Z,20.47
